sensor_id;sensor_type;location;lat;lon;timestamp;pressure;altitude;pressure_sealevel;temperature
69435;BMP180;56625;54.322;18.582;2023-08-01T00:00:28;99530.20;;;17.70
69435;BMP180;56625;54.322;18.582;2023-08-01T00:03:16;99531.40;;;17.70
69435;BMP180;56625;54.322;18.582;2023-08-01T00:05:44;99529.60;;;17.70
69435;BMP180;56625;54.322;18.582;2023-08-01T00:08:14;99521.40;;;17.70
69435;BMP180;56625;54.322;18.582;2023-08-01T00:10:42;99519.80;;;17.66
69435;BMP180;56625;54.322;18.582;2023-08-01T00:13:10;99509.20;;;17.60
69435;BMP180;56625;54.322;18.582;2023-08-01T00:15:38;99503.60;;;17.64
69435;BMP180;56625;54.322;18.582;2023-08-01T00:18:10;99500.80;;;17.62
69435;BMP180;56625;54.322;18.582;2023-08-01T00:20:37;99499.80;;;17.60
69435;BMP180;56625;54.322;18.582;2023-08-01T00:23:07;99493.20;;;17.60
69435;BMP180;56625;54.322;18.582;2023-08-01T00:25:35;99488.60;;;17.60
69435;BMP180;56625;54.322;18.582;2023-08-01T00:28:03;99489.40;;;17.60
69435;BMP180;56625;54.322;18.582;2023-08-01T00:30:31;99486.80;;;17.60
69435;BMP180;56625;54.322;18.582;2023-08-01T00:32:59;99489.80;;;17.60
69435;BMP180;56625;54.322;18.582;2023-08-01T00:35:27;99494.80;;;17.60
69435;BMP180;56625;54.322;18.582;2023-08-01T00:37:55;99497.40;;;17.60
69435;BMP180;56625;54.322;18.582;2023-08-01T00:40:23;99498.60;;;17.60
69435;BMP180;56625;54.322;18.582;2023-08-01T00:42:52;99500.40;;;17.60
69435;BMP180;56625;54.322;18.582;2023-08-01T00:45:26;99494.40;;;17.60
69435;BMP180;56625;54.322;18.582;2023-08-01T00:47:54;99486.20;;;17.60
69435;BMP180;56625;54.322;18.582;2023-08-01T00:50:23;99490.40;;;17.60
69435;BMP180;56625;54.322;18.582;2023-08-01T00:52:52;99483.00;;;17.60
69435;BMP180;56625;54.322;18.582;2023-08-01T00:55:22;99473.40;;;17.70
69435;BMP180;56625;54.322;18.582;2023-08-01T00:57:52;99479.00;;;17.70
69435;BMP180;56625;54.322;18.582;2023-08-01T01:00:20;99481.40;;;17.78
69435;BMP180;56625;54.322;18.582;2023-08-01T01:02:49;99474.00;;;17.80
69435;BMP180;56625;54.322;18.582;2023-08-01T01:05:17;99468.20;;;17.80
69435;BMP180;56625;54.322;18.582;2023-08-01T01:07:46;99471.00;;;17.82
69435;BMP180;56625;54.322;18.582;2023-08-01T01:10:14;99466.80;;;17.86
69435;BMP180;56625;54.322;18.582;2023-08-01T01:12:44;99463.60;;;17.90
69435;BMP180;56625;54.322;18.582;2023-08-01T01:15:12;99458.40;;;17.88
69435;BMP180;56625;54.322;18.582;2023-08-01T01:17:39;99452.40;;;17.88
69435;BMP180;56625;54.322;18.582;2023-08-01T01:20:08;99446.80;;;17.82
69435;BMP180;56625;54.322;18.582;2023-08-01T01:22:38;99452.00;;;17.80
69435;BMP180;56625;54.322;18.582;2023-08-01T01:25:09;99444.20;;;17.80
69435;BMP180;56625;54.322;18.582;2023-08-01T01:27:38;99441.80;;;17.80
69435;BMP180;56625;54.322;18.582;2023-08-01T01:30:07;99438.80;;;17.80
69435;BMP180;56625;54.322;18.582;2023-08-01T01:32:35;99432.00;;;17.80
69435;BMP180;56625;54.322;18.582;2023-08-01T01:35:04;99428.20;;;17.80
69435;BMP180;56625;54.322;18.582;2023-08-01T01:37:32;99423.80;;;17.80
69435;BMP180;56625;54.322;18.582;2023-08-01T01:40:00;99422.20;;;17.78
69435;BMP180;56625;54.322;18.582;2023-08-01T01:42:28;99422.00;;;17.74
69435;BMP180;56625;54.322;18.582;2023-08-01T01:44:55;99420.20;;;17.70
69435;BMP180;56625;54.322;18.582;2023-08-01T01:47:23;99415.20;;;17.70
69435;BMP180;56625;54.322;18.582;2023-08-01T01:49:51;99415.40;;;17.70
69435;BMP180;56625;54.322;18.582;2023-08-01T01:52:19;99417.60;;;17.70
69435;BMP180;56625;54.322;18.582;2023-08-01T01:54:47;99420.20;;;17.60
69435;BMP180;56625;54.322;18.582;2023-08-01T01:57:15;99416.60;;;17.60
69435;BMP180;56625;54.322;18.582;2023-08-01T01:59:43;99416.00;;;17.60
69435;BMP180;56625;54.322;18.582;2023-08-01T02:02:11;99416.20;;;17.60
69435;BMP180;56625;54.322;18.582;2023-08-01T02:04:38;99413.60;;;17.60
69435;BMP180;56625;54.322;18.582;2023-08-01T02:07:06;99410.20;;;17.60
69435;BMP180;56625;54.322;18.582;2023-08-01T02:09:34;99406.40;;;17.60
69435;BMP180;56625;54.322;18.582;2023-08-01T02:12:02;99399.60;;;17.50
69435;BMP180;56625;54.322;18.582;2023-08-01T02:14:32;99398.80;;;17.50
69435;BMP180;56625;54.322;18.582;2023-08-01T02:17:00;99397.80;;;17.50
69435;BMP180;56625;54.322;18.582;2023-08-01T02:19:28;99394.80;;;17.50
69435;BMP180;56625;54.322;18.582;2023-08-01T02:21:56;99397.80;;;17.48
69435;BMP180;56625;54.322;18.582;2023-08-01T02:24:23;99395.20;;;17.40
69435;BMP180;56625;54.322;18.582;2023-08-01T02:26:51;99389.00;;;17.40
69435;BMP180;56625;54.322;18.582;2023-08-01T02:29:20;99392.00;;;17.40
69435;BMP180;56625;54.322;18.582;2023-08-01T02:31:48;99386.00;;;17.44
69435;BMP180;56625;54.322;18.582;2023-08-01T02:34:16;99377.40;;;17.40
69435;BMP180;56625;54.322;18.582;2023-08-01T02:36:44;99373.80;;;17.40
69435;BMP180;56625;54.322;18.582;2023-08-01T02:39:12;99375.80;;;17.40
69435;BMP180;56625;54.322;18.582;2023-08-01T02:41:40;99372.40;;;17.42
69435;BMP180;56625;54.322;18.582;2023-08-01T02:44:07;99369.80;;;17.42
69435;BMP180;56625;54.322;18.582;2023-08-01T02:46:36;99369.40;;;17.40
69435;BMP180;56625;54.322;18.582;2023-08-01T02:49:05;99369.20;;;17.42
69435;BMP180;56625;54.322;18.582;2023-08-01T02:51:33;99362.80;;;17.44
69435;BMP180;56625;54.322;18.582;2023-08-01T02:54:01;99361.60;;;17.46
69435;BMP180;56625;54.322;18.582;2023-08-01T02:56:28;99360.60;;;17.50
69435;BMP180;56625;54.322;18.582;2023-08-01T02:58:56;99356.20;;;17.48
69435;BMP180;56625;54.322;18.582;2023-08-01T03:01:24;99358.00;;;17.50
69435;BMP180;56625;54.322;18.582;2023-08-01T03:03:52;99351.40;;;17.50
69435;BMP180;56625;54.322;18.582;2023-08-01T03:06:20;99348.40;;;17.50
69435;BMP180;56625;54.322;18.582;2023-08-01T03:08:48;99348.20;;;17.50
69435;BMP180;56625;54.322;18.582;2023-08-01T03:11:16;99346.00;;;17.50
69435;BMP180;56625;54.322;18.582;2023-08-01T03:13:44;99342.40;;;17.50
69435;BMP180;56625;54.322;18.582;2023-08-01T03:16:12;99337.00;;;17.46
69435;BMP180;56625;54.322;18.582;2023-08-01T03:18:40;99344.80;;;17.48
69435;BMP180;56625;54.322;18.582;2023-08-01T03:21:08;99340.80;;;17.48
69435;BMP180;56625;54.322;18.582;2023-08-01T03:23:37;99340.40;;;17.48
69435;BMP180;56625;54.322;18.582;2023-08-01T03:26:05;99341.00;;;17.50
69435;BMP180;56625;54.322;18.582;2023-08-01T03:28:32;99338.60;;;17.50
69435;BMP180;56625;54.322;18.582;2023-08-01T03:31:04;99335.20;;;17.50
69435;BMP180;56625;54.322;18.582;2023-08-01T03:33:35;99336.60;;;17.50
69435;BMP180;56625;54.322;18.582;2023-08-01T03:36:04;99331.80;;;17.50
69435;BMP180;56625;54.322;18.582;2023-08-01T03:38:31;99336.80;;;17.50
69435;BMP180;56625;54.322;18.582;2023-08-01T03:40:59;99335.20;;;17.50
69435;BMP180;56625;54.322;18.582;2023-08-01T03:43:27;99325.60;;;17.50
69435;BMP180;56625;54.322;18.582;2023-08-01T03:45:56;99324.60;;;17.58
69435;BMP180;56625;54.322;18.582;2023-08-01T03:48:25;99325.00;;;17.60
69435;BMP180;56625;54.322;18.582;2023-08-01T03:50:53;99323.00;;;17.60
69435;BMP180;56625;54.322;18.582;2023-08-01T03:53:21;99315.40;;;17.60
69435;BMP180;56625;54.322;18.582;2023-08-01T03:55:51;99314.60;;;17.60
69435;BMP180;56625;54.322;18.582;2023-08-01T03:58:19;99316.20;;;17.60
69435;BMP180;56625;54.322;18.582;2023-08-01T04:00:47;99315.60;;;17.60
69435;BMP180;56625;54.322;18.582;2023-08-01T04:03:15;99299.00;;;17.60
69435;BMP180;56625;54.322;18.582;2023-08-01T04:05:43;99299.80;;;17.66
69435;BMP180;56625;54.322;18.582;2023-08-01T04:08:13;99298.60;;;17.70
69435;BMP180;56625;54.322;18.582;2023-08-01T04:10:41;99294.40;;;17.70
69435;BMP180;56625;54.322;18.582;2023-08-01T04:13:09;99298.40;;;17.70
69435;BMP180;56625;54.322;18.582;2023-08-01T04:15:37;99297.20;;;17.70
69435;BMP180;56625;54.322;18.582;2023-08-01T04:18:05;99293.20;;;17.70
69435;BMP180;56625;54.322;18.582;2023-08-01T04:20:33;99293.40;;;17.70
69435;BMP180;56625;54.322;18.582;2023-08-01T04:23:01;99296.00;;;17.70
69435;BMP180;56625;54.322;18.582;2023-08-01T04:25:29;99295.80;;;17.70
69435;BMP180;56625;54.322;18.582;2023-08-01T04:27:57;99294.60;;;17.70
69435;BMP180;56625;54.322;18.582;2023-08-01T04:30:25;99297.80;;;17.70
69435;BMP180;56625;54.322;18.582;2023-08-01T04:32:53;99293.60;;;17.72
69435;BMP180;56625;54.322;18.582;2023-08-01T04:35:21;99294.80;;;17.70
69435;BMP180;56625;54.322;18.582;2023-08-01T04:37:49;99290.60;;;17.72
69435;BMP180;56625;54.322;18.582;2023-08-01T04:40:17;99293.60;;;17.78
69435;BMP180;56625;54.322;18.582;2023-08-01T04:42:45;99296.40;;;17.80
69435;BMP180;56625;54.322;18.582;2023-08-01T04:45:13;99297.40;;;17.80
69435;BMP180;56625;54.322;18.582;2023-08-01T04:47:42;99292.40;;;17.80
69435;BMP180;56625;54.322;18.582;2023-08-01T04:50:10;99289.60;;;17.80
69435;BMP180;56625;54.322;18.582;2023-08-01T04:52:38;99293.40;;;17.80
69435;BMP180;56625;54.322;18.582;2023-08-01T04:55:07;99296.20;;;17.80
69435;BMP180;56625;54.322;18.582;2023-08-01T04:57:35;99294.80;;;17.78
69435;BMP180;56625;54.322;18.582;2023-08-01T05:00:04;99296.20;;;17.70
69435;BMP180;56625;54.322;18.582;2023-08-01T05:02:32;99289.40;;;17.70
69435;BMP180;56625;54.322;18.582;2023-08-01T05:05:00;99287.00;;;17.66
69435;BMP180;56625;54.322;18.582;2023-08-01T05:07:28;99285.20;;;17.60
69435;BMP180;56625;54.322;18.582;2023-08-01T05:09:56;99287.20;;;17.60
69435;BMP180;56625;54.322;18.582;2023-08-01T05:12:24;99289.00;;;17.60
69435;BMP180;56625;54.322;18.582;2023-08-01T05:14:52;99284.60;;;17.54
69435;BMP180;56625;54.322;18.582;2023-08-01T05:17:20;99281.60;;;17.50
69435;BMP180;56625;54.322;18.582;2023-08-01T05:19:48;99287.80;;;17.50
69435;BMP180;56625;54.322;18.582;2023-08-01T05:22:16;99282.40;;;17.50
69435;BMP180;56625;54.322;18.582;2023-08-01T05:24:44;99281.60;;;17.50
69435;BMP180;56625;54.322;18.582;2023-08-01T05:27:12;99280.00;;;17.50
69435;BMP180;56625;54.322;18.582;2023-08-01T05:29:41;99275.80;;;17.50
69435;BMP180;56625;54.322;18.582;2023-08-01T05:32:09;99271.00;;;17.50
69435;BMP180;56625;54.322;18.582;2023-08-01T05:34:36;99267.80;;;17.50
69435;BMP180;56625;54.322;18.582;2023-08-01T05:37:05;99272.00;;;17.50
69435;BMP180;56625;54.322;18.582;2023-08-01T05:39:33;99275.00;;;17.50
69435;BMP180;56625;54.322;18.582;2023-08-01T05:42:00;99273.00;;;17.50
69435;BMP180;56625;54.322;18.582;2023-08-01T05:44:28;99267.20;;;17.50
69435;BMP180;56625;54.322;18.582;2023-08-01T05:46:56;99267.60;;;17.50
69435;BMP180;56625;54.322;18.582;2023-08-01T05:49:24;99264.60;;;17.52
69435;BMP180;56625;54.322;18.582;2023-08-01T05:51:52;99267.20;;;17.60
69435;BMP180;56625;54.322;18.582;2023-08-01T05:54:20;99266.40;;;17.60
69435;BMP180;56625;54.322;18.582;2023-08-01T05:56:48;99264.40;;;17.60
69435;BMP180;56625;54.322;18.582;2023-08-01T05:59:16;99263.00;;;17.60
69435;BMP180;56625;54.322;18.582;2023-08-01T06:01:45;99260.00;;;17.60
69435;BMP180;56625;54.322;18.582;2023-08-01T06:04:13;99264.60;;;17.60
69435;BMP180;56625;54.322;18.582;2023-08-01T06:06:41;99261.00;;;17.60
69435;BMP180;56625;54.322;18.582;2023-08-01T06:09:09;99264.80;;;17.60
69435;BMP180;56625;54.322;18.582;2023-08-01T06:11:37;99265.60;;;17.70
69435;BMP180;56625;54.322;18.582;2023-08-01T06:14:06;99262.40;;;17.78
69435;BMP180;56625;54.322;18.582;2023-08-01T06:16:34;99258.20;;;17.80
69435;BMP180;56625;54.322;18.582;2023-08-01T06:19:03;99256.00;;;17.82
69435;BMP180;56625;54.322;18.582;2023-08-01T06:21:31;99259.00;;;17.90
69435;BMP180;56625;54.322;18.582;2023-08-01T06:24:00;99254.60;;;17.90
69435;BMP180;56625;54.322;18.582;2023-08-01T06:26:28;99250.40;;;18.00
69435;BMP180;56625;54.322;18.582;2023-08-01T06:28:56;99247.00;;;18.06
69435;BMP180;56625;54.322;18.582;2023-08-01T06:31:24;99242.20;;;18.10
69435;BMP180;56625;54.322;18.582;2023-08-01T06:33:51;99242.40;;;18.10
69435;BMP180;56625;54.322;18.582;2023-08-01T06:36:19;99235.60;;;18.10
69435;BMP180;56625;54.322;18.582;2023-08-01T06:38:47;99233.80;;;18.18
69435;BMP180;56625;54.322;18.582;2023-08-01T06:41:15;99233.80;;;18.20
69435;BMP180;56625;54.322;18.582;2023-08-01T06:43:43;99234.20;;;18.20
69435;BMP180;56625;54.322;18.582;2023-08-01T06:46:11;99233.80;;;18.30
69435;BMP180;56625;54.322;18.582;2023-08-01T06:48:40;99233.20;;;18.20
69435;BMP180;56625;54.322;18.582;2023-08-01T06:51:08;99232.20;;;18.20
69435;BMP180;56625;54.322;18.582;2023-08-01T06:53:36;99223.00;;;18.20
69435;BMP180;56625;54.322;18.582;2023-08-01T06:56:04;99220.80;;;18.22
69435;BMP180;56625;54.322;18.582;2023-08-01T06:58:32;99214.80;;;18.20
69435;BMP180;56625;54.322;18.582;2023-08-01T07:01:00;99225.20;;;18.20
69435;BMP180;56625;54.322;18.582;2023-08-01T07:03:28;99220.60;;;18.20
69435;BMP180;56625;54.322;18.582;2023-08-01T07:05:56;99221.80;;;18.20
69435;BMP180;56625;54.322;18.582;2023-08-01T07:08:24;99212.20;;;18.20
69435;BMP180;56625;54.322;18.582;2023-08-01T07:10:52;99217.20;;;18.20
69435;BMP180;56625;54.322;18.582;2023-08-01T07:13:20;99211.80;;;18.20
69435;BMP180;56625;54.322;18.582;2023-08-01T07:15:49;99214.40;;;18.20
69435;BMP180;56625;54.322;18.582;2023-08-01T07:18:17;99214.00;;;18.20
69435;BMP180;56625;54.322;18.582;2023-08-01T07:20:46;99206.80;;;18.20
69435;BMP180;56625;54.322;18.582;2023-08-01T07:23:14;99206.60;;;18.20
69435;BMP180;56625;54.322;18.582;2023-08-01T07:25:42;99205.60;;;18.20
69435;BMP180;56625;54.322;18.582;2023-08-01T07:28:10;99205.20;;;18.10
69435;BMP180;56625;54.322;18.582;2023-08-01T07:30:38;99204.40;;;18.10
69435;BMP180;56625;54.322;18.582;2023-08-01T07:33:06;99198.20;;;18.10
69435;BMP180;56625;54.322;18.582;2023-08-01T07:35:34;99198.40;;;18.10
69435;BMP180;56625;54.322;18.582;2023-08-01T07:38:02;99193.20;;;18.20
69435;BMP180;56625;54.322;18.582;2023-08-01T07:40:29;99190.60;;;18.20
69435;BMP180;56625;54.322;18.582;2023-08-01T07:42:58;99184.60;;;18.20
69435;BMP180;56625;54.322;18.582;2023-08-01T07:45:27;99177.40;;;18.20
69435;BMP180;56625;54.322;18.582;2023-08-01T07:47:55;99182.00;;;18.20
69435;BMP180;56625;54.322;18.582;2023-08-01T07:50:23;99176.00;;;18.10
69435;BMP180;56625;54.322;18.582;2023-08-01T07:52:51;99176.20;;;18.00
69435;BMP180;56625;54.322;18.582;2023-08-01T07:55:19;99175.00;;;18.02
69435;BMP180;56625;54.322;18.582;2023-08-01T07:57:48;99167.80;;;18.10
69435;BMP180;56625;54.322;18.582;2023-08-01T08:00:17;99166.60;;;18.10
69435;BMP180;56625;54.322;18.582;2023-08-01T08:02:46;99157.80;;;18.10
69435;BMP180;56625;54.322;18.582;2023-08-01T08:05:14;99159.00;;;18.14
69435;BMP180;56625;54.322;18.582;2023-08-01T08:07:42;99150.80;;;18.20
69435;BMP180;56625;54.322;18.582;2023-08-01T08:10:10;99154.40;;;18.16
69435;BMP180;56625;54.322;18.582;2023-08-01T08:12:38;99154.60;;;18.20
69435;BMP180;56625;54.322;18.582;2023-08-01T08:15:07;99158.80;;;18.10
69435;BMP180;56625;54.322;18.582;2023-08-01T08:17:35;99159.40;;;18.06
69435;BMP180;56625;54.322;18.582;2023-08-01T08:20:03;99160.40;;;18.10
69435;BMP180;56625;54.322;18.582;2023-08-01T08:22:34;99160.80;;;18.00
69435;BMP180;56625;54.322;18.582;2023-08-01T08:25:02;99161.80;;;18.00
69435;BMP180;56625;54.322;18.582;2023-08-01T08:27:30;99160.60;;;18.00
69435;BMP180;56625;54.322;18.582;2023-08-01T08:29:58;99160.20;;;18.00
69435;BMP180;56625;54.322;18.582;2023-08-01T08:32:26;99160.80;;;18.00
69435;BMP180;56625;54.322;18.582;2023-08-01T08:34:54;99157.20;;;18.00
69435;BMP180;56625;54.322;18.582;2023-08-01T08:37:22;99158.60;;;18.00
69435;BMP180;56625;54.322;18.582;2023-08-01T08:39:50;99151.80;;;18.10
69435;BMP180;56625;54.322;18.582;2023-08-01T08:42:18;99151.00;;;18.10
69435;BMP180;56625;54.322;18.582;2023-08-01T08:44:54;99155.20;;;18.00
69435;BMP180;56625;54.322;18.582;2023-08-01T08:47:27;99155.00;;;18.02
69435;BMP180;56625;54.322;18.582;2023-08-01T08:49:56;99147.00;;;18.00
69435;BMP180;56625;54.322;18.582;2023-08-01T08:52:27;99150.40;;;18.00
69435;BMP180;56625;54.322;18.582;2023-08-01T08:54:56;99151.80;;;18.10
69435;BMP180;56625;54.322;18.582;2023-08-01T08:57:24;99148.60;;;18.14
69435;BMP180;56625;54.322;18.582;2023-08-01T08:59:52;99142.40;;;18.26
69435;BMP180;56625;54.322;18.582;2023-08-01T09:02:21;99138.40;;;18.40
69435;BMP180;56625;54.322;18.582;2023-08-01T09:04:50;99131.80;;;18.50
69435;BMP180;56625;54.322;18.582;2023-08-01T09:07:23;99128.20;;;18.70
69435;BMP180;56625;54.322;18.582;2023-08-01T09:09:52;99126.00;;;18.80
69435;BMP180;56625;54.322;18.582;2023-08-01T09:12:21;99128.40;;;18.90
69435;BMP180;56625;54.322;18.582;2023-08-01T09:14:51;99120.60;;;19.00
69435;BMP180;56625;54.322;18.582;2023-08-01T09:17:19;99117.80;;;19.00
69435;BMP180;56625;54.322;18.582;2023-08-01T09:19:47;99118.00;;;19.00
69435;BMP180;56625;54.322;18.582;2023-08-01T09:22:17;99115.80;;;18.90
69435;BMP180;56625;54.322;18.582;2023-08-01T09:24:52;99108.20;;;18.90
69435;BMP180;56625;54.322;18.582;2023-08-01T09:27:21;99103.60;;;18.84
69435;BMP180;56625;54.322;18.582;2023-08-01T09:29:52;99111.00;;;18.82
69435;BMP180;56625;54.322;18.582;2023-08-01T09:32:20;99115.40;;;18.80
69435;BMP180;56625;54.322;18.582;2023-08-01T09:34:59;99107.60;;;18.80
69435;BMP180;56625;54.322;18.582;2023-08-01T09:37:42;99104.40;;;18.80
69435;BMP180;56625;54.322;18.582;2023-08-01T09:40:11;99099.00;;;18.70
69435;BMP180;56625;54.322;18.582;2023-08-01T09:42:44;99094.60;;;18.70
69435;BMP180;56625;54.322;18.582;2023-08-01T09:45:17;99098.00;;;18.70
69435;BMP180;56625;54.322;18.582;2023-08-01T09:47:45;99101.60;;;18.70
69435;BMP180;56625;54.322;18.582;2023-08-01T09:50:23;99099.80;;;18.62
69435;BMP180;56625;54.322;18.582;2023-08-01T09:52:51;99097.60;;;18.60
69435;BMP180;56625;54.322;18.582;2023-08-01T09:55:43;99099.00;;;18.60
69435;BMP180;56625;54.322;18.582;2023-08-01T09:58:14;99094.60;;;18.60
69435;BMP180;56625;54.322;18.582;2023-08-01T10:00:44;99096.60;;;18.60
69435;BMP180;56625;54.322;18.582;2023-08-01T10:03:13;99089.40;;;18.60
69435;BMP180;56625;54.322;18.582;2023-08-01T10:05:42;99091.60;;;18.60
69435;BMP180;56625;54.322;18.582;2023-08-01T10:08:13;99088.00;;;18.60
69435;BMP180;56625;54.322;18.582;2023-08-01T10:10:42;99087.20;;;18.60
69435;BMP180;56625;54.322;18.582;2023-08-01T10:13:13;99088.00;;;18.60
69435;BMP180;56625;54.322;18.582;2023-08-01T10:15:42;99078.20;;;18.60
69435;BMP180;56625;54.322;18.582;2023-08-01T10:18:11;99084.60;;;18.60
69435;BMP180;56625;54.322;18.582;2023-08-01T10:20:39;99081.60;;;18.60
69435;BMP180;56625;54.322;18.582;2023-08-01T10:23:10;99077.20;;;18.60
69435;BMP180;56625;54.322;18.582;2023-08-01T10:25:39;99077.60;;;18.50
69435;BMP180;56625;54.322;18.582;2023-08-01T10:28:08;99075.00;;;18.50
69435;BMP180;56625;54.322;18.582;2023-08-01T10:30:36;99072.80;;;18.50
69435;BMP180;56625;54.322;18.582;2023-08-01T10:33:04;99070.60;;;18.50
69435;BMP180;56625;54.322;18.582;2023-08-01T10:35:34;99068.00;;;18.50
69435;BMP180;56625;54.322;18.582;2023-08-01T10:38:11;99071.80;;;18.42
69435;BMP180;56625;54.322;18.582;2023-08-01T10:40:42;99069.00;;;18.48
69435;BMP180;56625;54.322;18.582;2023-08-01T10:43:21;99063.80;;;18.48
69435;BMP180;56625;54.322;18.582;2023-08-01T10:46:01;99059.60;;;18.50
69435;BMP180;56625;54.322;18.582;2023-08-01T10:48:30;99059.60;;;18.50
69435;BMP180;56625;54.322;18.582;2023-08-01T10:50:58;99054.40;;;18.50
69435;BMP180;56625;54.322;18.582;2023-08-01T10:53:38;99062.00;;;18.50
69435;BMP180;56625;54.322;18.582;2023-08-01T10:56:19;99059.60;;;18.40
69435;BMP180;56625;54.322;18.582;2023-08-01T10:58:49;99057.60;;;18.40
69435;BMP180;56625;54.322;18.582;2023-08-01T11:01:17;99054.20;;;18.50
69435;BMP180;56625;54.322;18.582;2023-08-01T11:03:45;99055.00;;;18.52
69435;BMP180;56625;54.322;18.582;2023-08-01T11:06:13;99057.80;;;18.60
69435;BMP180;56625;54.322;18.582;2023-08-01T11:08:42;99054.80;;;18.60
69435;BMP180;56625;54.322;18.582;2023-08-01T11:11:14;99042.60;;;18.68
69435;BMP180;56625;54.322;18.582;2023-08-01T11:13:52;99041.40;;;18.60
69435;BMP180;56625;54.322;18.582;2023-08-01T11:16:21;99040.20;;;18.58
69435;BMP180;56625;54.322;18.582;2023-08-01T11:18:49;99037.40;;;18.60
69435;BMP180;56625;54.322;18.582;2023-08-01T11:21:27;99034.40;;;18.60
69435;BMP180;56625;54.322;18.582;2023-08-01T11:23:56;99032.40;;;18.60
69435;BMP180;56625;54.322;18.582;2023-08-01T11:26:25;99038.80;;;18.60
69435;BMP180;56625;54.322;18.582;2023-08-01T11:28:53;99035.20;;;18.54
69435;BMP180;56625;54.322;18.582;2023-08-01T11:31:21;99034.40;;;18.50
69435;BMP180;56625;54.322;18.582;2023-08-01T11:33:56;99038.60;;;18.50
69435;BMP180;56625;54.322;18.582;2023-08-01T11:36:27;99040.60;;;18.50
69435;BMP180;56625;54.322;18.582;2023-08-01T11:39:00;99039.00;;;18.50
69435;BMP180;56625;54.322;18.582;2023-08-01T11:41:29;99032.80;;;18.50
69435;BMP180;56625;54.322;18.582;2023-08-01T11:44:02;99032.60;;;18.50
69435;BMP180;56625;54.322;18.582;2023-08-01T11:46:34;99027.80;;;18.50
69435;BMP180;56625;54.322;18.582;2023-08-01T11:49:06;99032.00;;;18.40
69435;BMP180;56625;54.322;18.582;2023-08-01T11:51:44;99031.00;;;18.40
69435;BMP180;56625;54.322;18.582;2023-08-01T11:54:14;99031.40;;;18.40
69435;BMP180;56625;54.322;18.582;2023-08-01T11:56:43;99027.20;;;18.40
69435;BMP180;56625;54.322;18.582;2023-08-01T11:59:16;99026.00;;;18.40
69435;BMP180;56625;54.322;18.582;2023-08-01T12:01:46;99028.20;;;18.42
69435;BMP180;56625;54.322;18.582;2023-08-01T12:04:26;99024.00;;;18.40
69435;BMP180;56625;54.322;18.582;2023-08-01T12:06:54;99025.60;;;18.50
69435;BMP180;56625;54.322;18.582;2023-08-01T12:09:23;99020.60;;;18.50
69435;BMP180;56625;54.322;18.582;2023-08-01T12:11:59;99014.60;;;18.60
69435;BMP180;56625;54.322;18.582;2023-08-01T12:14:31;99012.40;;;18.70
69435;BMP180;56625;54.322;18.582;2023-08-01T12:17:00;99011.60;;;18.80
69435;BMP180;56625;54.322;18.582;2023-08-01T12:19:27;99004.80;;;18.98
69435;BMP180;56625;54.322;18.582;2023-08-01T12:21:55;99003.00;;;19.10
69435;BMP180;56625;54.322;18.582;2023-08-01T12:24:23;99001.20;;;19.24
69435;BMP180;56625;54.322;18.582;2023-08-01T12:26:52;98998.80;;;19.48
69435;BMP180;56625;54.322;18.582;2023-08-01T12:29:20;98993.40;;;19.64
69435;BMP180;56625;54.322;18.582;2023-08-01T12:31:48;98991.20;;;19.80
69435;BMP180;56625;54.322;18.582;2023-08-01T12:34:17;98990.00;;;19.88
69435;BMP180;56625;54.322;18.582;2023-08-01T12:36:45;98985.80;;;19.90
69435;BMP180;56625;54.322;18.582;2023-08-01T12:39:13;98989.80;;;19.90
69435;BMP180;56625;54.322;18.582;2023-08-01T12:41:41;98987.80;;;19.90
69435;BMP180;56625;54.322;18.582;2023-08-01T12:44:08;98988.60;;;19.82
69435;BMP180;56625;54.322;18.582;2023-08-01T12:46:37;98986.80;;;19.80
69435;BMP180;56625;54.322;18.582;2023-08-01T12:49:05;98989.40;;;19.80
69435;BMP180;56625;54.322;18.582;2023-08-01T12:51:33;98990.00;;;19.70
69435;BMP180;56625;54.322;18.582;2023-08-01T12:54:01;98980.20;;;19.60
69435;BMP180;56625;54.322;18.582;2023-08-01T12:56:29;98984.00;;;19.60
69435;BMP180;56625;54.322;18.582;2023-08-01T12:58:57;98984.80;;;19.50
69435;BMP180;56625;54.322;18.582;2023-08-01T13:01:26;98986.40;;;19.40
69435;BMP180;56625;54.322;18.582;2023-08-01T13:03:54;98979.60;;;19.30
69435;BMP180;56625;54.322;18.582;2023-08-01T13:06:22;98984.40;;;19.22
69435;BMP180;56625;54.322;18.582;2023-08-01T13:08:50;98983.80;;;19.10
69435;BMP180;56625;54.322;18.582;2023-08-01T13:11:18;98976.40;;;19.06
69435;BMP180;56625;54.322;18.582;2023-08-01T13:13:46;98969.00;;;19.00
69435;BMP180;56625;54.322;18.582;2023-08-01T13:16:14;98969.20;;;19.00
69435;BMP180;56625;54.322;18.582;2023-08-01T13:18:42;98971.00;;;19.10
69435;BMP180;56625;54.322;18.582;2023-08-01T13:21:15;98966.40;;;19.10
69435;BMP180;56625;54.322;18.582;2023-08-01T13:23:43;98967.20;;;19.20
69435;BMP180;56625;54.322;18.582;2023-08-01T13:26:11;98962.00;;;19.30
69435;BMP180;56625;54.322;18.582;2023-08-01T13:28:39;98962.60;;;19.30
69435;BMP180;56625;54.322;18.582;2023-08-01T13:31:07;98956.00;;;19.30
69435;BMP180;56625;54.322;18.582;2023-08-01T13:33:35;98950.60;;;19.20
69435;BMP180;56625;54.322;18.582;2023-08-01T13:36:04;98947.60;;;19.18
69435;BMP180;56625;54.322;18.582;2023-08-01T13:38:32;98952.20;;;19.10
69435;BMP180;56625;54.322;18.582;2023-08-01T13:41:00;98951.00;;;19.00
69435;BMP180;56625;54.322;18.582;2023-08-01T13:43:29;98948.80;;;19.00
69435;BMP180;56625;54.322;18.582;2023-08-01T13:45:57;98939.00;;;19.00
69435;BMP180;56625;54.322;18.582;2023-08-01T13:48:25;98943.40;;;19.10
69435;BMP180;56625;54.322;18.582;2023-08-01T13:50:57;98946.00;;;19.10
69435;BMP180;56625;54.322;18.582;2023-08-01T13:53:26;98944.40;;;19.20
69435;BMP180;56625;54.322;18.582;2023-08-01T13:55:54;98935.00;;;19.30
69435;BMP180;56625;54.322;18.582;2023-08-01T13:58:23;98928.40;;;19.40
69435;BMP180;56625;54.322;18.582;2023-08-01T14:00:51;98930.60;;;19.40
69435;BMP180;56625;54.322;18.582;2023-08-01T14:03:19;98923.60;;;19.42
69435;BMP180;56625;54.322;18.582;2023-08-01T14:05:47;98927.20;;;19.50